createdAt,value
2023-03-03T00:04:08.958Z,836.00
2023-03-03T00:09:07.294Z,872.00
2023-03-03T00:14:06.606Z,865.00
2023-03-03T00:19:05.727Z,852.00
2023-03-03T00:24:06.077Z,832.00
2023-03-03T00:29:04.376Z,839.00
2023-03-03T00:34:03.679Z,813.00
2023-03-03T00:39:05.039Z,806.00
2023-03-03T00:44:02.170Z,809.00
2023-03-03T00:49:01.303Z,795.00
2023-03-03T00:54:00.629Z,798.00
2023-03-03T00:58:59.975Z,790.00
2023-03-03T01:04:00.181Z,773.00
2023-03-03T01:08:59.278Z,778.00
2023-03-03T01:13:57.565Z,762.00
2023-03-03T01:18:57.246Z,754.00
2023-03-03T01:23:57.162Z,753.00
2023-03-03T01:28:55.492Z,745.00
2023-03-03T01:33:55.760Z,738.00
2023-03-03T01:38:54.050Z,729.00
2023-03-03T01:43:53.350Z,739.00
2023-03-03T01:48:52.669Z,734.00
2023-03-03T01:53:53.827Z,725.00
2023-03-03T01:58:50.921Z,723.00
2023-03-03T02:03:51.274Z,714.00
2023-03-03T02:08:50.584Z,709.00
2023-03-03T02:13:48.901Z,714.00
2023-03-03T02:18:48.252Z,715.00
2023-03-03T02:23:47.385Z,715.00
2023-03-03T02:28:46.711Z,705.00
2023-03-03T02:33:47.889Z,707.00
2023-03-03T02:38:45.041Z,698.00
2023-03-03T02:43:43.201Z,700.00
2023-03-03T02:48:43.333Z,692.00
2023-03-03T02:53:41.641Z,695.00
2023-03-03T02:58:43.973Z,698.00
2023-03-03T03:03:41.320Z,689.00
2023-03-03T03:08:39.450Z,693.00
2023-03-03T03:13:41.607Z,691.00
2023-03-03T03:18:40.919Z,685.00
2023-03-03T03:23:39.217Z,693.00
2023-03-03T03:28:37.535Z,685.00
2023-03-03T03:33:38.863Z,685.00
2023-03-03T03:38:37.177Z,686.00
2023-03-03T03:43:34.472Z,684.00
2023-03-03T03:48:34.778Z,683.00
2023-03-03T03:53:35.089Z,672.00
2023-03-03T03:58:33.390Z,673.00
2023-03-03T04:03:32.770Z,674.00
2023-03-03T04:08:31.887Z,688.00
2023-03-03T04:13:32.220Z,684.00
2023-03-03T04:18:31.477Z,669.00
2023-03-03T04:23:30.785Z,677.00
2023-03-03T04:28:29.078Z,674.00
2023-03-03T04:33:29.375Z,677.00
2023-03-03T04:38:27.710Z,669.00
2023-03-03T04:43:28.042Z,676.00
2023-03-03T04:48:26.175Z,676.00
2023-03-03T04:53:26.504Z,674.00
2023-03-03T04:58:24.819Z,675.00
2023-03-03T05:03:25.167Z,675.00
2023-03-03T05:08:23.478Z,671.00
2023-03-03T05:13:23.810Z,679.00
2023-03-03T05:18:23.970Z,673.00
2023-03-03T05:23:22.105Z,675.00
2023-03-03T05:28:20.285Z,674.00
2023-03-03T05:33:20.443Z,672.00
2023-03-03T05:38:18.579Z,674.00
2023-03-03T05:43:17.892Z,663.00
2023-03-03T05:48:18.202Z,667.00
2023-03-03T05:53:15.462Z,668.00
2023-03-03T05:58:15.812Z,669.00
2023-03-03T06:03:15.008Z,673.00
2023-03-03T06:08:14.183Z,673.00
2023-03-03T06:13:14.507Z,671.00
2023-03-03T06:18:12.857Z,675.00
2023-03-03T06:23:12.165Z,666.00
2023-03-03T06:28:11.476Z,668.00
2023-03-03T06:33:09.788Z,672.00
2023-03-03T06:38:10.090Z,662.00
2023-03-03T06:43:09.393Z,667.00
2023-03-03T06:48:09.691Z,663.00
2023-03-03T06:53:07.978Z,669.00
2023-03-03T06:58:07.283Z,664.00
2023-03-03T07:03:07.591Z,667.00
2023-03-03T07:08:05.879Z,676.00
2023-03-03T07:13:05.223Z,672.00
2023-03-03T07:18:04.368Z,670.00
2023-03-03T07:23:03.704Z,674.00
2023-03-03T07:28:03.850Z,674.00
2023-03-03T07:33:02.937Z,667.00
2023-03-03T07:38:02.246Z,667.00
2023-03-03T07:43:00.493Z,675.00
2023-03-03T07:47:59.822Z,675.00
2023-03-03T07:53:00.152Z,666.00
2023-03-03T07:57:59.277Z,670.00
2023-03-03T08:02:57.636Z,658.00
2023-03-03T08:07:56.962Z,665.00
2023-03-03T08:12:56.293Z,660.00
2023-03-03T08:17:55.404Z,660.00
2023-03-03T08:22:56.708Z,654.00
2023-03-03T08:27:54.013Z,655.00
2023-03-03T08:32:54.348Z,644.00
2023-03-03T08:37:51.498Z,647.00
2023-03-03T08:42:52.803Z,643.00
2023-03-03T08:47:50.114Z,645.00
2023-03-03T08:52:50.444Z,631.00
2023-03-03T08:57:51.797Z,626.00
2023-03-03T09:02:48.924Z,629.00
2023-03-03T09:07:49.079Z,622.00
2023-03-03T09:12:48.202Z,625.00
2023-03-03T09:17:47.552Z,693.00
2023-03-03T09:22:45.657Z,667.00
2023-03-03T09:27:45.055Z,657.00
2023-03-03T09:32:45.252Z,664.00
2023-03-03T09:37:44.435Z,664.00
2023-03-03T09:42:42.587Z,658.00
2023-03-03T09:47:41.716Z,655.00
2023-03-03T09:52:40.855Z,644.00
2023-03-03T09:57:38.995Z,643.00
2023-03-03T10:02:39.255Z,644.00
2023-03-03T10:07:39.444Z,631.00
2023-03-03T10:12:38.761Z,643.00
2023-03-03T10:17:38.087Z,640.00
2023-03-03T10:22:36.405Z,630.00
2023-03-03T10:27:35.516Z,632.00
2023-03-03T10:32:36.043Z,630.00
2023-03-03T10:37:35.140Z,623.00
2023-03-03T10:42:34.439Z,628.00
2023-03-03T10:47:32.757Z,622.00
2023-03-03T10:52:32.059Z,614.00
2023-03-03T10:57:31.363Z,614.00
2023-03-03T11:02:30.680Z,617.00
2023-03-03T11:07:32.001Z,605.00
2023-03-03T11:12:29.279Z,613.00
2023-03-03T11:17:30.581Z,601.00
2023-03-03T11:22:27.869Z,607.00
2023-03-03T11:27:27.193Z,607.00
2023-03-03T11:32:26.559Z,599.00
2023-03-03T11:37:25.690Z,604.00
2023-03-03T11:42:24.984Z,598.00
2023-03-03T11:47:26.665Z,595.00
2023-03-03T11:52:25.551Z,594.00
2023-03-03T11:57:24.868Z,596.00
2023-03-03T12:02:23.210Z,605.00
2023-03-03T12:07:21.381Z,598.00
2023-03-03T12:12:22.473Z,600.00
2023-03-03T12:17:20.770Z,595.00
2023-03-03T12:22:19.115Z,589.00
2023-03-03T12:27:18.265Z,583.00
2023-03-03T12:32:17.443Z,575.00
2023-03-03T12:37:16.609Z,592.00
2023-03-03T12:42:14.833Z,600.00
2023-03-03T12:47:15.012Z,590.00
2023-03-03T12:52:14.173Z,589.00
2023-03-03T12:57:13.542Z,591.00
2023-03-03T13:02:12.667Z,598.00
2023-03-03T13:07:11.994Z,592.00
2023-03-03T13:12:11.323Z,596.00
2023-03-03T13:17:11.855Z,607.00
2023-03-03T13:22:09.989Z,600.00
2023-03-03T13:27:10.311Z,589.00
2023-03-03T13:32:09.647Z,583.00
2023-03-03T13:37:07.818Z,591.00
2023-03-03T13:42:06.982Z,571.00
2023-03-03T13:47:07.313Z,581.00
2023-03-03T13:52:06.308Z,579.00
2023-03-03T13:57:04.606Z,578.00
2023-03-03T14:02:04.952Z,579.00
2023-03-03T14:07:04.148Z,574.00
2023-03-03T14:12:03.308Z,585.00
2023-03-03T14:17:01.530Z,581.00
2023-03-03T14:22:00.712Z,575.00
2023-03-03T14:26:59.899Z,574.00
2023-03-03T14:31:58.099Z,574.00
2023-03-03T14:36:58.281Z,577.00
2023-03-03T14:41:57.462Z,575.00
2023-03-03T14:46:57.596Z,579.00
2023-03-03T14:51:56.744Z,571.00
2023-03-03T14:56:54.913Z,579.00
2023-03-03T15:01:55.106Z,574.00
2023-03-03T15:06:53.238Z,579.00
2023-03-03T15:11:53.451Z,579.00
2023-03-03T15:16:51.606Z,573.00
2023-03-03T15:21:51.754Z,575.00
2023-03-03T15:26:54.999Z,567.00
2023-03-03T15:31:48.125Z,564.00
2023-03-03T15:36:48.293Z,568.00
2023-03-03T15:41:47.589Z,575.00
2023-03-03T15:46:47.807Z,580.00
2023-03-03T15:52:00.958Z,579.00
2023-03-03T15:56:45.136Z,577.00
2023-03-03T16:01:44.308Z,590.00
2023-03-03T16:06:43.450Z,577.00
2023-03-03T16:11:42.775Z,588.00
2023-03-03T16:16:42.206Z,633.00
2023-03-03T16:21:42.423Z,667.00
2023-03-03T16:26:41.686Z,697.00
2023-03-03T16:31:40.744Z,742.00
2023-03-03T16:36:39.921Z,788.00
2023-03-03T16:41:39.775Z,777.00
2023-03-03T16:46:37.339Z,754.00
2023-03-03T16:51:36.649Z,751.00
2023-03-03T16:56:37.111Z,707.00
2023-03-03T17:01:35.618Z,736.00
2023-03-03T17:06:35.592Z,706.00
2023-03-03T17:11:33.905Z,790.00
2023-03-03T17:16:46.059Z,775.00
2023-03-03T17:21:32.243Z,806.00
2023-03-03T17:26:31.388Z,844.00
2023-03-03T17:31:29.609Z,842.00
2023-03-03T17:36:32.071Z,816.00
2023-03-03T17:41:30.113Z,867.00
2023-03-03T17:46:28.549Z,924.00
2023-03-03T17:51:26.906Z,938.00
2023-03-03T17:56:27.510Z,877.00
2023-03-03T18:01:26.247Z,837.00
2023-03-03T18:06:25.563Z,858.00
2023-03-03T18:11:26.868Z,813.00
2023-03-03T18:16:23.848Z,846.00
2023-03-03T18:21:23.351Z,838.00
2023-03-03T18:26:22.281Z,666.00
2023-03-03T18:31:22.685Z,746.00
2023-03-03T18:36:21.016Z,789.00
2023-03-03T18:41:21.129Z,713.00
2023-03-03T18:46:19.559Z,739.00
2023-03-03T18:51:19.552Z,772.00
2023-03-03T18:56:18.152Z,707.00
2023-03-03T19:01:17.508Z,745.00
2023-03-03T19:06:16.684Z,805.00
2023-03-03T19:11:16.965Z,707.00
2023-03-03T19:16:16.526Z,703.00
2023-03-03T19:21:14.125Z,683.00
2023-03-03T19:26:13.797Z,704.00
2023-03-03T19:31:11.927Z,780.00
2023-03-03T19:36:12.310Z,710.00
2023-03-03T19:41:11.441Z,689.00
2023-03-03T19:46:11.867Z,721.00
2023-03-03T19:51:15.350Z,664.00
2023-03-03T19:56:11.130Z,708.00
2023-03-03T20:01:08.390Z,704.00
2023-03-03T20:06:07.334Z,754.00
2023-03-03T20:11:06.860Z,751.00
2023-03-03T20:16:06.053Z,709.00
2023-03-03T20:21:06.852Z,726.00
2023-03-03T20:26:04.554Z,720.00
2023-03-03T20:31:03.652Z,730.00
2023-03-03T20:36:02.959Z,721.00
2023-03-03T20:41:03.226Z,720.00
2023-03-03T20:46:01.555Z,787.00
2023-03-03T20:51:00.611Z,809.00
2023-03-03T20:55:59.926Z,839.00
2023-03-03T21:00:59.196Z,915.00
2023-03-03T21:05:59.468Z,968.00
2023-03-03T21:10:59.419Z,1003.00
2023-03-03T21:15:57.726Z,1059.00
2023-03-03T21:20:57.377Z,1038.00
2023-03-03T21:25:55.409Z,1090.00
2023-03-03T21:30:55.013Z,1147.00
2023-03-03T21:35:54.055Z,1116.00
2023-03-03T21:40:53.216Z,1039.00
2023-03-03T21:45:52.495Z,1152.00
2023-03-03T21:50:52.887Z,1098.00
2023-03-03T21:55:51.970Z,1184.00
2023-03-03T22:00:50.246Z,1199.00
2023-03-03T22:05:50.526Z,1169.00
2023-03-03T22:10:48.806Z,1089.00
2023-03-03T22:15:48.199Z,1187.00
2023-03-03T22:20:47.354Z,1191.00
2023-03-03T22:25:46.707Z,1250.00
2023-03-03T22:30:45.847Z,1198.00
2023-03-03T22:35:46.005Z,1248.00
2023-03-03T22:40:45.190Z,1190.00
2023-03-03T22:45:44.497Z,1225.00
2023-03-03T22:50:44.823Z,1169.00
2023-03-03T22:55:43.124Z,511.00
2023-03-03T23:00:41.427Z,409.00
2023-03-03T23:05:39.765Z,638.00
2023-03-03T23:10:40.828Z,791.00
2023-03-03T23:15:39.062Z,450.00
2023-03-03T23:20:38.298Z,534.00
2023-03-03T23:25:37.588Z,567.00
2023-03-03T23:30:36.839Z,684.00
2023-03-03T23:35:36.149Z,615.00
2023-03-03T23:40:36.415Z,630.00
2023-03-03T23:45:34.651Z,657.00
2023-03-03T23:50:33.982Z,639.00
2023-03-03T23:55:33.177Z,553.00
